sensor_id;sensor_type;location;lat;lon;timestamp;P1;durP1;ratioP1;P2;durP2;ratioP2
50549;SDS011;36505;52.512;13.460;2023-02-22T00:01:17;17.63;;;3.13;;
50549;SDS011;36505;52.512;13.460;2023-02-22T00:04:05;29.42;;;6.07;;
50549;SDS011;36505;52.512;13.460;2023-02-22T00:06:31;29.95;;;5.70;;
50549;SDS011;36505;52.512;13.460;2023-02-22T00:08:57;27.52;;;4.93;;
50549;SDS011;36505;52.512;13.460;2023-02-22T00:11:23;25.27;;;3.58;;
50549;SDS011;36505;52.512;13.460;2023-02-22T00:13:49;32.92;;;3.90;;
50549;SDS011;36505;52.512;13.460;2023-02-22T00:16:18;22.60;;;3.63;;
50549;SDS011;36505;52.512;13.460;2023-02-22T00:18:45;25.77;;;4.35;;
50549;SDS011;36505;52.512;13.460;2023-02-22T00:21:11;26.13;;;6.35;;
50549;SDS011;36505;52.512;13.460;2023-02-22T00:23:39;14.85;;;3.80;;
50549;SDS011;36505;52.512;13.460;2023-02-22T00:26:10;27.52;;;7.30;;
50549;SDS011;36505;52.512;13.460;2023-02-22T00:28:38;29.90;;;5.15;;
50549;SDS011;36505;52.512;13.460;2023-02-22T00:31:04;31.75;;;4.65;;
50549;SDS011;36505;52.512;13.460;2023-02-22T00:33:31;30.08;;;6.85;;
50549;SDS011;36505;52.512;13.460;2023-02-22T00:35:57;20.80;;;3.85;;
50549;SDS011;36505;52.512;13.460;2023-02-22T00:38:23;32.50;;;4.38;;
50549;SDS011;36505;52.512;13.460;2023-02-22T00:40:48;20.67;;;3.25;;
50549;SDS011;36505;52.512;13.460;2023-02-22T00:43:14;25.80;;;3.83;;
50549;SDS011;36505;52.512;13.460;2023-02-22T00:45:40;21.00;;;4.50;;
50549;SDS011;36505;52.512;13.460;2023-02-22T00:48:06;26.70;;;3.90;;
50549;SDS011;36505;52.512;13.460;2023-02-22T00:50:32;20.20;;;4.18;;
50549;SDS011;36505;52.512;13.460;2023-02-22T00:52:59;25.40;;;3.60;;
50549;SDS011;36505;52.512;13.460;2023-02-22T00:55:29;27.02;;;3.38;;
50549;SDS011;36505;52.512;13.460;2023-02-22T00:57:56;24.70;;;4.45;;
50549;SDS011;36505;52.512;13.460;2023-02-22T01:00:24;17.30;;;4.13;;
50549;SDS011;36505;52.512;13.460;2023-02-22T01:02:52;22.65;;;3.38;;
50549;SDS011;36505;52.512;13.460;2023-02-22T01:05:21;30.33;;;5.72;;
50549;SDS011;36505;52.512;13.460;2023-02-22T01:07:48;23.98;;;4.10;;
50549;SDS011;36505;52.512;13.460;2023-02-22T01:10:14;26.25;;;3.85;;
50549;SDS011;36505;52.512;13.460;2023-02-22T01:12:41;23.15;;;4.20;;
50549;SDS011;36505;52.512;13.460;2023-02-22T01:15:07;23.58;;;5.53;;
50549;SDS011;36505;52.512;13.460;2023-02-22T01:17:35;27.27;;;4.93;;
50549;SDS011;36505;52.512;13.460;2023-02-22T01:20:02;19.48;;;4.18;;
50549;SDS011;36505;52.512;13.460;2023-02-22T01:24:59;31.88;;;5.28;;
50549;SDS011;36505;52.512;13.460;2023-02-22T01:27:24;25.77;;;3.45;;
50549;SDS011;36505;52.512;13.460;2023-02-22T01:29:50;20.10;;;3.70;;
50549;SDS011;36505;52.512;13.460;2023-02-22T01:32:15;36.28;;;5.30;;
50549;SDS011;36505;52.512;13.460;2023-02-22T01:34:40;23.75;;;4.20;;
50549;SDS011;36505;52.512;13.460;2023-02-22T01:37:06;25.92;;;4.80;;
50549;SDS011;36505;52.512;13.460;2023-02-22T01:39:32;32.08;;;3.50;;
50549;SDS011;36505;52.512;13.460;2023-02-22T01:41:57;23.17;;;3.97;;
50549;SDS011;36505;52.512;13.460;2023-02-22T01:44:28;18.95;;;3.65;;
50549;SDS011;36505;52.512;13.460;2023-02-22T01:46:59;17.63;;;4.90;;
50549;SDS011;36505;52.512;13.460;2023-02-22T01:49:34;31.92;;;4.57;;
50549;SDS011;36505;52.512;13.460;2023-02-22T01:52:08;29.95;;;5.30;;
50549;SDS011;36505;52.512;13.460;2023-02-22T01:54:41;25.38;;;5.15;;
50549;SDS011;36505;52.512;13.460;2023-02-22T01:59:52;38.28;;;5.20;;
50549;SDS011;36505;52.512;13.460;2023-02-22T02:02:20;19.92;;;6.35;;
50549;SDS011;36505;52.512;13.460;2023-02-22T02:04:49;27.75;;;5.65;;
50549;SDS011;36505;52.512;13.460;2023-02-22T02:07:17;28.88;;;8.23;;
50549;SDS011;36505;52.512;13.460;2023-02-22T02:09:58;36.97;;;6.03;;
50549;SDS011;36505;52.512;13.460;2023-02-22T02:12:26;28.98;;;5.85;;
50549;SDS011;36505;52.512;13.460;2023-02-22T02:15:15;31.33;;;7.28;;
50549;SDS011;36505;52.512;13.460;2023-02-22T02:17:46;25.15;;;4.80;;
50549;SDS011;36505;52.512;13.460;2023-02-22T02:23:00;21.08;;;4.53;;
50549;SDS011;36505;52.512;13.460;2023-02-22T02:42:28;23.52;;;4.03;;
50549;SDS011;36505;52.512;13.460;2023-02-22T02:45:03;21.98;;;4.88;;
50549;SDS011;36505;52.512;13.460;2023-02-22T02:47:36;34.38;;;6.82;;
50549;SDS011;36505;52.512;13.460;2023-02-22T02:50:48;25.65;;;6.18;;
50549;SDS011;36505;52.512;13.460;2023-02-22T02:53:03;25.00;;;5.75;;
50549;SDS011;36505;52.512;13.460;2023-02-22T02:55:32;18.63;;;3.78;;
50549;SDS011;36505;52.512;13.460;2023-02-22T02:58:01;17.15;;;3.28;;
50549;SDS011;36505;52.512;13.460;2023-02-22T03:00:32;19.75;;;3.90;;
50549;SDS011;36505;52.512;13.460;2023-02-22T03:06:01;27.33;;;5.15;;
50549;SDS011;36505;52.512;13.460;2023-02-22T03:08:45;19.23;;;4.78;;
50549;SDS011;36505;52.512;13.460;2023-02-22T03:11:24;23.13;;;4.28;;
50549;SDS011;36505;52.512;13.460;2023-02-22T03:19:13;20.08;;;4.30;;
50549;SDS011;36505;52.512;13.460;2023-02-22T03:24:35;15.80;;;4.32;;
50549;SDS011;36505;52.512;13.460;2023-02-22T03:29:58;24.38;;;5.13;;
50549;SDS011;36505;52.512;13.460;2023-02-22T03:32:32;30.38;;;5.85;;
50549;SDS011;36505;52.512;13.460;2023-02-22T03:35:05;31.02;;;5.55;;
50549;SDS011;36505;52.512;13.460;2023-02-22T03:37:35;20.98;;;4.43;;
50549;SDS011;36505;52.512;13.460;2023-02-22T03:40:09;25.23;;;4.80;;
50549;SDS011;36505;52.512;13.460;2023-02-22T03:42:39;33.63;;;6.20;;
50549;SDS011;36505;52.512;13.460;2023-02-22T03:45:09;25.40;;;5.40;;
50549;SDS011;36505;52.512;13.460;2023-02-22T03:48:25;22.35;;;5.38;;
50549;SDS011;36505;52.512;13.460;2023-02-22T03:50:28;22.77;;;4.70;;
50549;SDS011;36505;52.512;13.460;2023-02-22T03:52:59;23.33;;;5.70;;
50549;SDS011;36505;52.512;13.460;2023-02-22T03:55:25;23.88;;;5.50;;
50549;SDS011;36505;52.512;13.460;2023-02-22T03:58:03;22.90;;;6.30;;
50549;SDS011;36505;52.512;13.460;2023-02-22T04:00:34;23.27;;;6.07;;
50549;SDS011;36505;52.512;13.460;2023-02-22T04:03:00;35.78;;;6.80;;
50549;SDS011;36505;52.512;13.460;2023-02-22T04:05:26;28.88;;;8.75;;
50549;SDS011;36505;52.512;13.460;2023-02-22T04:07:53;25.98;;;6.68;;
50549;SDS011;36505;52.512;13.460;2023-02-22T04:10:20;27.33;;;6.65;;
50549;SDS011;36505;52.512;13.460;2023-02-22T04:12:46;29.00;;;6.88;;
50549;SDS011;36505;52.512;13.460;2023-02-22T04:15:22;24.40;;;6.18;;
50549;SDS011;36505;52.512;13.460;2023-02-22T04:17:48;29.15;;;6.95;;
50549;SDS011;36505;52.512;13.460;2023-02-22T04:20:14;26.60;;;5.80;;
50549;SDS011;36505;52.512;13.460;2023-02-22T04:22:43;34.83;;;6.57;;
50549;SDS011;36505;52.512;13.460;2023-02-22T04:25:09;21.42;;;6.50;;
50549;SDS011;36505;52.512;13.460;2023-02-22T04:27:34;23.48;;;6.18;;
50549;SDS011;36505;52.512;13.460;2023-02-22T04:30:00;27.48;;;6.05;;
50549;SDS011;36505;52.512;13.460;2023-02-22T04:32:26;24.48;;;6.00;;
50549;SDS011;36505;52.512;13.460;2023-02-22T04:34:51;23.17;;;6.22;;
50549;SDS011;36505;52.512;13.460;2023-02-22T04:37:16;24.42;;;6.35;;
50549;SDS011;36505;52.512;13.460;2023-02-22T04:39:42;28.10;;;6.40;;
50549;SDS011;36505;52.512;13.460;2023-02-22T04:42:07;27.95;;;6.60;;
50549;SDS011;36505;52.512;13.460;2023-02-22T04:44:32;23.70;;;7.25;;
50549;SDS011;36505;52.512;13.460;2023-02-22T04:46:58;24.30;;;5.40;;
50549;SDS011;36505;52.512;13.460;2023-02-22T04:49:23;25.98;;;4.95;;
50549;SDS011;36505;52.512;13.460;2023-02-22T04:51:49;32.42;;;7.55;;
50549;SDS011;36505;52.512;13.460;2023-02-22T04:54:14;32.03;;;8.35;;
50549;SDS011;36505;52.512;13.460;2023-02-22T04:56:41;31.02;;;6.53;;
50549;SDS011;36505;52.512;13.460;2023-02-22T04:59:07;26.13;;;4.90;;
50549;SDS011;36505;52.512;13.460;2023-02-22T05:01:33;27.73;;;6.22;;
50549;SDS011;36505;52.512;13.460;2023-02-22T05:04:06;31.55;;;6.85;;
50549;SDS011;36505;52.512;13.460;2023-02-22T05:06:32;36.00;;;5.90;;
50549;SDS011;36505;52.512;13.460;2023-02-22T05:08:57;27.45;;;5.25;;
50549;SDS011;36505;52.512;13.460;2023-02-22T05:11:23;21.92;;;5.53;;
50549;SDS011;36505;52.512;13.460;2023-02-22T05:13:48;42.13;;;7.85;;
50549;SDS011;36505;52.512;13.460;2023-02-22T05:16:14;15.60;;;5.03;;
50549;SDS011;36505;52.512;13.460;2023-02-22T05:18:39;27.85;;;6.55;;
50549;SDS011;36505;52.512;13.460;2023-02-22T05:21:05;40.28;;;7.45;;
50549;SDS011;36505;52.512;13.460;2023-02-22T05:23:31;25.92;;;5.80;;
50549;SDS011;36505;52.512;13.460;2023-02-22T05:25:57;24.38;;;5.35;;
50549;SDS011;36505;52.512;13.460;2023-02-22T05:28:23;33.15;;;7.43;;
50549;SDS011;36505;52.512;13.460;2023-02-22T05:30:48;23.83;;;4.53;;
50549;SDS011;36505;52.512;13.460;2023-02-22T05:33:13;33.38;;;5.43;;
50549;SDS011;36505;52.512;13.460;2023-02-22T05:35:39;21.83;;;6.35;;
50549;SDS011;36505;52.512;13.460;2023-02-22T05:38:05;28.25;;;4.85;;
50549;SDS011;36505;52.512;13.460;2023-02-22T05:40:31;30.30;;;5.70;;
50549;SDS011;36505;52.512;13.460;2023-02-22T05:42:57;28.75;;;4.50;;
50549;SDS011;36505;52.512;13.460;2023-02-22T05:45:24;16.50;;;3.80;;
50549;SDS011;36505;52.512;13.460;2023-02-22T05:47:52;30.23;;;5.43;;
50549;SDS011;36505;52.512;13.460;2023-02-22T05:50:18;23.10;;;4.30;;
50549;SDS011;36505;52.512;13.460;2023-02-22T05:52:45;25.63;;;6.13;;
50549;SDS011;36505;52.512;13.460;2023-02-22T05:55:13;27.23;;;6.63;;
50549;SDS011;36505;52.512;13.460;2023-02-22T05:57:40;18.77;;;6.13;;
50549;SDS011;36505;52.512;13.460;2023-02-22T06:00:06;29.50;;;7.28;;
50549;SDS011;36505;52.512;13.460;2023-02-22T06:02:32;27.67;;;7.32;;
50549;SDS011;36505;52.512;13.460;2023-02-22T06:04:58;38.70;;;7.40;;
50549;SDS011;36505;52.512;13.460;2023-02-22T06:07:24;27.45;;;7.53;;
50549;SDS011;36505;52.512;13.460;2023-02-22T06:09:50;28.75;;;6.60;;
50549;SDS011;36505;52.512;13.460;2023-02-22T06:12:15;43.33;;;7.55;;
50549;SDS011;36505;52.512;13.460;2023-02-22T06:14:41;31.38;;;6.18;;
50549;SDS011;36505;52.512;13.460;2023-02-22T06:17:10;22.63;;;5.80;;
50549;SDS011;36505;52.512;13.460;2023-02-22T06:19:36;35.88;;;6.68;;
50549;SDS011;36505;52.512;13.460;2023-02-22T06:22:01;37.78;;;6.45;;
50549;SDS011;36505;52.512;13.460;2023-02-22T06:24:27;36.22;;;7.18;;
50549;SDS011;36505;52.512;13.460;2023-02-22T06:26:54;24.27;;;6.40;;
50549;SDS011;36505;52.512;13.460;2023-02-22T06:29:21;16.38;;;4.43;;
50549;SDS011;36505;52.512;13.460;2023-02-22T06:31:50;34.50;;;6.03;;
50549;SDS011;36505;52.512;13.460;2023-02-22T06:34:17;29.02;;;5.57;;
50549;SDS011;36505;52.512;13.460;2023-02-22T06:36:44;35.20;;;6.53;;
50549;SDS011;36505;52.512;13.460;2023-02-22T06:39:11;27.73;;;6.97;;
50549;SDS011;36505;52.512;13.460;2023-02-22T06:41:39;30.05;;;6.55;;
50549;SDS011;36505;52.512;13.460;2023-02-22T06:44:09;29.95;;;5.85;;
50549;SDS011;36505;52.512;13.460;2023-02-22T06:46:37;28.65;;;5.47;;
50549;SDS011;36505;52.512;13.460;2023-02-22T06:49:03;27.20;;;7.75;;
50549;SDS011;36505;52.512;13.460;2023-02-22T06:51:28;18.20;;;5.30;;
50549;SDS011;36505;52.512;13.460;2023-02-22T06:53:55;37.45;;;7.55;;
50549;SDS011;36505;52.512;13.460;2023-02-22T06:56:20;29.38;;;4.45;;
50549;SDS011;36505;52.512;13.460;2023-02-22T06:58:45;28.05;;;4.43;;
50549;SDS011;36505;52.512;13.460;2023-02-22T07:01:11;30.40;;;6.35;;
50549;SDS011;36505;52.512;13.460;2023-02-22T07:03:36;27.13;;;4.50;;
50549;SDS011;36505;52.512;13.460;2023-02-22T07:06:02;27.05;;;5.65;;
50549;SDS011;36505;52.512;13.460;2023-02-22T07:08:28;35.17;;;9.60;;
50549;SDS011;36505;52.512;13.460;2023-02-22T07:10:54;34.58;;;9.32;;
50549;SDS011;36505;52.512;13.460;2023-02-22T07:13:20;35.00;;;9.82;;
50549;SDS011;36505;52.512;13.460;2023-02-22T07:15:45;34.95;;;10.18;;
50549;SDS011;36505;52.512;13.460;2023-02-22T07:18:10;36.67;;;9.48;;
50549;SDS011;36505;52.512;13.460;2023-02-22T07:20:36;36.63;;;6.72;;
50549;SDS011;36505;52.512;13.460;2023-02-22T07:23:03;28.50;;;7.30;;
50549;SDS011;36505;52.512;13.460;2023-02-22T07:25:29;31.88;;;6.78;;
50549;SDS011;36505;52.512;13.460;2023-02-22T07:27:55;33.47;;;6.55;;
50549;SDS011;36505;52.512;13.460;2023-02-22T07:30:28;25.90;;;6.28;;
50549;SDS011;36505;52.512;13.460;2023-02-22T07:32:56;25.92;;;5.18;;
50549;SDS011;36505;52.512;13.460;2023-02-22T07:35:30;28.58;;;6.10;;
50549;SDS011;36505;52.512;13.460;2023-02-22T07:37:57;26.63;;;5.68;;
50549;SDS011;36505;52.512;13.460;2023-02-22T07:40:23;31.83;;;6.63;;
50549;SDS011;36505;52.512;13.460;2023-02-22T07:43:00;22.98;;;5.25;;
50549;SDS011;36505;52.512;13.460;2023-02-22T07:45:28;31.55;;;5.75;;
50549;SDS011;36505;52.512;13.460;2023-02-22T07:47:55;21.05;;;5.10;;
50549;SDS011;36505;52.512;13.460;2023-02-22T07:50:22;27.40;;;6.20;;
50549;SDS011;36505;52.512;13.460;2023-02-22T07:52:49;32.65;;;5.65;;
50549;SDS011;36505;52.512;13.460;2023-02-22T07:55:17;29.67;;;4.53;;
50549;SDS011;36505;52.512;13.460;2023-02-22T07:57:46;23.05;;;5.25;;
50549;SDS011;36505;52.512;13.460;2023-02-22T08:00:14;28.17;;;5.88;;
50549;SDS011;36505;52.512;13.460;2023-02-22T08:02:41;26.10;;;7.55;;
50549;SDS011;36505;52.512;13.460;2023-02-22T08:05:08;31.58;;;5.40;;
50549;SDS011;36505;52.512;13.460;2023-02-22T08:07:35;34.80;;;6.60;;
50549;SDS011;36505;52.512;13.460;2023-02-22T08:10:02;21.80;;;5.55;;
50549;SDS011;36505;52.512;13.460;2023-02-22T08:12:35;22.33;;;5.63;;
50549;SDS011;36505;52.512;13.460;2023-02-22T08:15:05;34.60;;;6.07;;
50549;SDS011;36505;52.512;13.460;2023-02-22T08:17:32;20.08;;;5.97;;
50549;SDS011;36505;52.512;13.460;2023-02-22T08:19:57;15.95;;;4.63;;
50549;SDS011;36505;52.512;13.460;2023-02-22T08:22:23;20.60;;;4.70;;
50549;SDS011;36505;52.512;13.460;2023-02-22T08:24:48;39.75;;;8.07;;
50549;SDS011;36505;52.512;13.460;2023-02-22T08:27:21;30.42;;;7.43;;
50549;SDS011;36505;52.512;13.460;2023-02-22T08:29:51;29.00;;;5.90;;
50549;SDS011;36505;52.512;13.460;2023-02-22T08:32:17;25.00;;;5.72;;
50549;SDS011;36505;52.512;13.460;2023-02-22T08:34:42;22.90;;;6.32;;
50549;SDS011;36505;52.512;13.460;2023-02-22T08:37:08;29.90;;;5.38;;
50549;SDS011;36505;52.512;13.460;2023-02-22T08:39:34;27.27;;;5.90;;
50549;SDS011;36505;52.512;13.460;2023-02-22T08:41:59;42.13;;;9.35;;
50549;SDS011;36505;52.512;13.460;2023-02-22T08:44:25;24.35;;;6.30;;
50549;SDS011;36505;52.512;13.460;2023-02-22T08:46:50;28.73;;;7.72;;
50549;SDS011;36505;52.512;13.460;2023-02-22T08:49:16;21.13;;;5.90;;
50549;SDS011;36505;52.512;13.460;2023-02-22T08:51:41;30.60;;;5.38;;
50549;SDS011;36505;52.512;13.460;2023-02-22T08:54:07;31.02;;;5.88;;
50549;SDS011;36505;52.512;13.460;2023-02-22T08:56:32;32.47;;;5.38;;
50549;SDS011;36505;52.512;13.460;2023-02-22T08:58:58;28.67;;;6.63;;
50549;SDS011;36505;52.512;13.460;2023-02-22T09:01:23;32.25;;;6.45;;
50549;SDS011;36505;52.512;13.460;2023-02-22T09:03:49;26.05;;;5.00;;
50549;SDS011;36505;52.512;13.460;2023-02-22T09:06:16;28.65;;;5.63;;
50549;SDS011;36505;52.512;13.460;2023-02-22T09:08:42;26.85;;;6.55;;
50549;SDS011;36505;52.512;13.460;2023-02-22T09:11:07;24.05;;;5.20;;
50549;SDS011;36505;52.512;13.460;2023-02-22T09:13:32;29.25;;;9.27;;
50549;SDS011;36505;52.512;13.460;2023-02-22T09:15:58;27.20;;;6.53;;
50549;SDS011;36505;52.512;13.460;2023-02-22T09:18:25;27.58;;;5.20;;
50549;SDS011;36505;52.512;13.460;2023-02-22T09:20:51;28.40;;;5.60;;
50549;SDS011;36505;52.512;13.460;2023-02-22T09:23:16;33.30;;;4.40;;
50549;SDS011;36505;52.512;13.460;2023-02-22T09:25:41;22.48;;;5.40;;
50549;SDS011;36505;52.512;13.460;2023-02-22T09:28:07;21.52;;;4.43;;
50549;SDS011;36505;52.512;13.460;2023-02-22T09:30:33;34.72;;;7.95;;
50549;SDS011;36505;52.512;13.460;2023-02-22T09:33:01;26.73;;;5.60;;
50549;SDS011;36505;52.512;13.460;2023-02-22T09:35:34;24.92;;;4.93;;
50549;SDS011;36505;52.512;13.460;2023-02-22T09:38:01;25.65;;;5.60;;
50549;SDS011;36505;52.512;13.460;2023-02-22T09:40:31;31.30;;;7.40;;
50549;SDS011;36505;52.512;13.460;2023-02-22T09:46:04;28.73;;;6.28;;
50549;SDS011;36505;52.512;13.460;2023-02-22T09:48:37;26.92;;;6.10;;
50549;SDS011;36505;52.512;13.460;2023-02-22T09:51:15;23.17;;;5.03;;
50549;SDS011;36505;52.512;13.460;2023-02-22T09:53:44;20.83;;;5.90;;
50549;SDS011;36505;52.512;13.460;2023-02-22T09:56:14;22.63;;;4.40;;
50549;SDS011;36505;52.512;13.460;2023-02-22T09:58:45;31.33;;;5.97;;
50549;SDS011;36505;52.512;13.460;2023-02-22T10:09:38;26.58;;;4.18;;
50549;SDS011;36505;52.512;13.460;2023-02-22T10:12:10;23.45;;;4.72;;
50549;SDS011;36505;52.512;13.460;2023-02-22T10:17:38;36.88;;;5.68;;
50549;SDS011;36505;52.512;13.460;2023-02-22T10:20:28;29.80;;;7.95;;
50549;SDS011;36505;52.512;13.460;2023-02-22T10:23:12;20.40;;;4.78;;
50549;SDS011;36505;52.512;13.460;2023-02-22T10:25:47;34.45;;;5.18;;
50549;SDS011;36505;52.512;13.460;2023-02-22T10:28:19;24.77;;;6.87;;
50549;SDS011;36505;52.512;13.460;2023-02-22T10:30:55;23.80;;;5.32;;
50549;SDS011;36505;52.512;13.460;2023-02-22T10:33:28;17.60;;;4.85;;
50549;SDS011;36505;52.512;13.460;2023-02-22T10:35:57;21.42;;;4.82;;
50549;SDS011;36505;52.512;13.460;2023-02-22T10:38:31;17.63;;;4.38;;
50549;SDS011;36505;52.512;13.460;2023-02-22T10:43:40;18.45;;;4.13;;
50549;SDS011;36505;52.512;13.460;2023-02-22T10:46:08;24.33;;;5.43;;
50549;SDS011;36505;52.512;13.460;2023-02-22T10:48:39;32.85;;;4.25;;
50549;SDS011;36505;52.512;13.460;2023-02-22T10:51:07;13.77;;;3.50;;
50549;SDS011;36505;52.512;13.460;2023-02-22T10:53:35;17.83;;;4.07;;
50549;SDS011;36505;52.512;13.460;2023-02-22T10:58:54;20.77;;;3.78;;
50549;SDS011;36505;52.512;13.460;2023-02-22T11:01:36;25.50;;;5.30;;
50549;SDS011;36505;52.512;13.460;2023-02-22T11:04:15;34.97;;;4.22;;
50549;SDS011;36505;52.512;13.460;2023-02-22T11:06:48;21.00;;;4.47;;
50549;SDS011;36505;52.512;13.460;2023-02-22T11:09:23;24.13;;;4.28;;
50549;SDS011;36505;52.512;13.460;2023-02-22T11:11:49;26.55;;;4.93;;
50549;SDS011;36505;52.512;13.460;2023-02-22T11:14:31;18.75;;;5.00;;
50549;SDS011;36505;52.512;13.460;2023-02-22T11:16:57;27.77;;;4.53;;
50549;SDS011;36505;52.512;13.460;2023-02-22T11:19:25;41.95;;;12.05;;
50549;SDS011;36505;52.512;13.460;2023-02-22T11:22:18;26.67;;;10.35;;
50549;SDS011;36505;52.512;13.460;2023-02-22T11:24:46;23.50;;;5.20;;
50549;SDS011;36505;52.512;13.460;2023-02-22T11:32:34;31.92;;;8.90;;
50549;SDS011;36505;52.512;13.460;2023-02-22T11:37:50;19.23;;;5.95;;
50549;SDS011;36505;52.512;13.460;2023-02-22T11:40:18;22.63;;;4.25;;
50549;SDS011;36505;52.512;13.460;2023-02-22T11:42:47;20.90;;;5.50;;
50549;SDS011;36505;52.512;13.460;2023-02-22T11:50:30;23.70;;;4.53;;
50549;SDS011;36505;52.512;13.460;2023-02-22T11:58:57;23.08;;;5.35;;
50549;SDS011;36505;52.512;13.460;2023-02-22T12:20:44;22.17;;;4.80;;
50549;SDS011;36505;52.512;13.460;2023-02-22T12:26:06;28.40;;;5.72;;
50549;SDS011;36505;52.512;13.460;2023-02-22T12:28:39;21.63;;;2.80;;
50549;SDS011;36505;52.512;13.460;2023-02-22T12:31:26;25.55;;;4.05;;
50549;SDS011;36505;52.512;13.460;2023-02-22T12:36:52;15.30;;;4.18;;
50549;SDS011;36505;52.512;13.460;2023-02-22T12:42:17;19.52;;;3.22;;
50549;SDS011;36505;52.512;13.460;2023-02-22T12:44:51;13.20;;;2.83;;
50549;SDS011;36505;52.512;13.460;2023-02-22T12:47:28;19.83;;;3.47;;
50549;SDS011;36505;52.512;13.460;2023-02-22T12:50:04;19.33;;;4.45;;
50549;SDS011;36505;52.512;13.460;2023-02-22T12:52:56;20.23;;;4.10;;
50549;SDS011;36505;52.512;13.460;2023-02-22T12:57:54;17.17;;;4.10;;
50549;SDS011;36505;52.512;13.460;2023-02-22T13:03:20;25.38;;;6.30;;
50549;SDS011;36505;52.512;13.460;2023-02-22T13:11:57;17.65;;;3.42;;
50549;SDS011;36505;52.512;13.460;2023-02-22T13:20:25;18.52;;;3.72;;
50549;SDS011;36505;52.512;13.460;2023-02-22T13:25:39;20.63;;;3.20;;
50549;SDS011;36505;52.512;13.460;2023-02-22T13:28:18;16.90;;;2.97;;
50549;SDS011;36505;52.512;13.460;2023-02-22T13:52:54;20.83;;;2.85;;
50549;SDS011;36505;52.512;13.460;2023-02-22T13:55:26;13.55;;;2.42;;
50549;SDS011;36505;52.512;13.460;2023-02-22T13:58:01;15.57;;;3.13;;
50549;SDS011;36505;52.512;13.460;2023-02-22T14:06:08;20.98;;;4.20;;
50549;SDS011;36505;52.512;13.460;2023-02-22T14:08:53;11.95;;;2.42;;
50549;SDS011;36505;52.512;13.460;2023-02-22T14:16:25;13.55;;;2.72;;
50549;SDS011;36505;52.512;13.460;2023-02-22T14:21:30;15.57;;;2.65;;
50549;SDS011;36505;52.512;13.460;2023-02-22T14:24:13;17.73;;;2.80;;
50549;SDS011;36505;52.512;13.460;2023-02-22T14:26:43;18.17;;;2.50;;
50549;SDS011;36505;52.512;13.460;2023-02-22T14:29:20;12.88;;;2.72;;
50549;SDS011;36505;52.512;13.460;2023-02-22T14:36:57;17.98;;;2.80;;
50549;SDS011;36505;52.512;13.460;2023-02-22T14:39:32;16.35;;;3.45;;
50549;SDS011;36505;52.512;13.460;2023-02-22T14:45:00;14.52;;;2.45;;
50549;SDS011;36505;52.512;13.460;2023-02-22T14:50:13;20.80;;;3.15;;
50549;SDS011;36505;52.512;13.460;2023-02-22T14:52:47;15.25;;;3.35;;
50549;SDS011;36505;52.512;13.460;2023-02-22T14:55:25;19.15;;;3.25;;
50549;SDS011;36505;52.512;13.460;2023-02-22T15:00:43;16.20;;;3.38;;
50549;SDS011;36505;52.512;13.460;2023-02-22T15:06:05;18.08;;;3.38;;
50549;SDS011;36505;52.512;13.460;2023-02-22T15:09:06;15.13;;;3.13;;
50549;SDS011;36505;52.512;13.460;2023-02-22T15:11:52;20.98;;;3.92;;
50549;SDS011;36505;52.512;13.460;2023-02-22T15:14:32;22.45;;;2.92;;
50549;SDS011;36505;52.512;13.460;2023-02-22T15:17:16;15.70;;;4.32;;
50549;SDS011;36505;52.512;13.460;2023-02-22T15:19:49;18.65;;;2.88;;
50549;SDS011;36505;52.512;13.460;2023-02-22T15:22:23;18.45;;;3.45;;
50549;SDS011;36505;52.512;13.460;2023-02-22T15:24:57;18.20;;;3.15;;
50549;SDS011;36505;52.512;13.460;2023-02-22T15:27:25;12.80;;;2.65;;
50549;SDS011;36505;52.512;13.460;2023-02-22T15:30:37;15.50;;;2.78;;
50549;SDS011;36505;52.512;13.460;2023-02-22T15:32:41;15.68;;;3.03;;
50549;SDS011;36505;52.512;13.460;2023-02-22T15:40:40;18.48;;;3.78;;
50549;SDS011;36505;52.512;13.460;2023-02-22T15:43:19;12.85;;;2.47;;
50549;SDS011;36505;52.512;13.460;2023-02-22T15:48:18;23.10;;;4.00;;
50549;SDS011;36505;52.512;13.460;2023-02-22T15:51:00;19.45;;;3.58;;
50549;SDS011;36505;52.512;13.460;2023-02-22T15:53:37;16.80;;;3.35;;
50549;SDS011;36505;52.512;13.460;2023-02-22T15:56:09;19.92;;;4.20;;
50549;SDS011;36505;52.512;13.460;2023-02-22T15:58:38;22.90;;;3.17;;
50549;SDS011;36505;52.512;13.460;2023-02-22T16:01:05;21.67;;;4.47;;
50549;SDS011;36505;52.512;13.460;2023-02-22T16:03:39;17.30;;;3.97;;
50549;SDS011;36505;52.512;13.460;2023-02-22T16:06:27;22.85;;;4.95;;
50549;SDS011;36505;52.512;13.460;2023-02-22T16:09:06;19.42;;;3.00;;
50549;SDS011;36505;52.512;13.460;2023-02-22T16:11:47;18.90;;;3.67;;
50549;SDS011;36505;52.512;13.460;2023-02-22T16:14:27;29.10;;;4.72;;
50549;SDS011;36505;52.512;13.460;2023-02-22T16:22:41;14.13;;;2.47;;
50549;SDS011;36505;52.512;13.460;2023-02-22T16:25:21;15.13;;;3.17;;
50549;SDS011;36505;52.512;13.460;2023-02-22T16:27:51;14.70;;;3.05;;
50549;SDS011;36505;52.512;13.460;2023-02-22T16:30:37;14.63;;;3.55;;
50549;SDS011;36505;52.512;13.460;2023-02-22T16:33:04;18.85;;;4.30;;
50549;SDS011;36505;52.512;13.460;2023-02-22T16:35:37;15.43;;;3.97;;
50549;SDS011;36505;52.512;13.460;2023-02-22T16:38:15;16.08;;;3.03;;
50549;SDS011;36505;52.512;13.460;2023-02-22T16:40:52;13.02;;;3.38;;
50549;SDS011;36505;52.512;13.460;2023-02-22T16:43:23;19.20;;;3.17;;
50549;SDS011;36505;52.512;13.460;2023-02-22T16:45:52;27.88;;;3.78;;
50549;SDS011;36505;52.512;13.460;2023-02-22T16:48:22;26.23;;;4.75;;
50549;SDS011;36505;52.512;13.460;2023-02-22T16:50:50;21.87;;;4.07;;
50549;SDS011;36505;52.512;13.460;2023-02-22T16:53:20;23.48;;;4.25;;
50549;SDS011;36505;52.512;13.460;2023-02-22T16:55:48;18.00;;;4.00;;
50549;SDS011;36505;52.512;13.460;2023-02-22T16:58:17;19.48;;;3.65;;
50549;SDS011;36505;52.512;13.460;2023-02-22T17:00:43;19.25;;;3.63;;
50549;SDS011;36505;52.512;13.460;2023-02-22T17:03:13;16.90;;;3.80;;
50549;SDS011;36505;52.512;13.460;2023-02-22T17:05:39;18.70;;;3.88;;
50549;SDS011;36505;52.512;13.460;2023-02-22T17:08:08;11.95;;;3.55;;
50549;SDS011;36505;52.512;13.460;2023-02-22T17:10:36;14.27;;;3.10;;
50549;SDS011;36505;52.512;13.460;2023-02-22T17:13:02;15.52;;;3.20;;
50549;SDS011;36505;52.512;13.460;2023-02-22T17:15:32;21.52;;;4.45;;
50549;SDS011;36505;52.512;13.460;2023-02-22T17:18:00;25.13;;;4.30;;
50549;SDS011;36505;52.512;13.460;2023-02-22T17:20:30;14.43;;;4.05;;
50549;SDS011;36505;52.512;13.460;2023-02-22T17:22:59;23.27;;;3.72;;
50549;SDS011;36505;52.512;13.460;2023-02-22T17:25:30;16.35;;;3.63;;
50549;SDS011;36505;52.512;13.460;2023-02-22T17:28:00;15.15;;;3.65;;
50549;SDS011;36505;52.512;13.460;2023-02-22T17:30:26;16.80;;;3.60;;
50549;SDS011;36505;52.512;13.460;2023-02-22T17:32:52;14.23;;;3.22;;
50549;SDS011;36505;52.512;13.460;2023-02-22T17:35:20;16.08;;;3.95;;
50549;SDS011;36505;52.512;13.460;2023-02-22T17:37:50;15.32;;;3.30;;
50549;SDS011;36505;52.512;13.460;2023-02-22T17:40:16;25.83;;;4.22;;
50549;SDS011;36505;52.512;13.460;2023-02-22T17:42:42;20.23;;;4.18;;
50549;SDS011;36505;52.512;13.460;2023-02-22T17:45:09;11.30;;;2.90;;
50549;SDS011;36505;52.512;13.460;2023-02-22T17:47:38;18.13;;;3.78;;